createdAt,value
2023-06-10T00:00:17.053Z,2
2023-06-10T00:05:20.018Z,2
2023-06-10T00:10:20.093Z,2
2023-06-10T00:15:20.040Z,1
2023-06-10T00:20:20.009Z,1
2023-06-10T00:25:20.070Z,2
2023-06-10T00:30:17.072Z,1
2023-06-10T00:35:20.086Z,2
2023-06-10T00:40:17.069Z,1
2023-06-10T00:45:20.116Z,1
2023-06-10T00:50:19.996Z,1
2023-06-10T00:55:19.995Z,1
2023-06-10T01:00:20.067Z,2
2023-06-10T01:05:17.072Z,2
2023-06-10T01:10:20.107Z,2
2023-06-10T01:15:20.050Z,3
2023-06-10T01:20:17.061Z,3
2023-06-10T01:25:20.067Z,2
2023-06-10T01:30:20.065Z,2
2023-06-10T01:35:17.075Z,2
2023-06-10T01:40:20.047Z,2
2023-06-10T01:45:17.090Z,2
2023-06-10T01:50:20.050Z,2
2023-06-10T01:55:20.110Z,2
2023-06-10T02:00:17.110Z,3
2023-06-10T02:05:20.056Z,1
2023-06-10T02:10:20.092Z,1
2023-06-10T02:15:17.074Z,1
2023-06-10T02:20:20.078Z,2
2023-06-10T02:25:20.061Z,1
2023-06-10T02:30:20.129Z,2
2023-06-10T02:35:20.033Z,2
2023-06-10T02:40:20.114Z,1
2023-06-10T02:45:20.068Z,1
2023-06-10T02:50:20.076Z,2
2023-06-10T02:55:17.106Z,1
2023-06-10T03:00:20.100Z,2
2023-06-10T03:05:20.100Z,1
2023-06-10T03:10:17.178Z,1
2023-06-10T03:15:20.097Z,1
2023-06-10T03:20:20.203Z,1
2023-06-10T03:25:17.090Z,1
2023-06-10T03:30:17.137Z,1
2023-06-10T03:35:20.081Z,1
2023-06-10T03:40:17.105Z,1
2023-06-10T03:45:20.076Z,1
2023-06-10T03:50:20.110Z,1
2023-06-10T03:55:17.148Z,2
2023-06-10T04:00:19.405Z,1
2023-06-10T04:05:19.381Z,1
2023-06-10T04:10:19.346Z,1
2023-06-10T04:15:16.394Z,1
2023-06-10T04:20:19.379Z,1
2023-06-10T04:25:19.353Z,0
2023-06-10T04:30:16.382Z,2
2023-06-10T04:35:19.340Z,2
2023-06-10T04:40:16.385Z,2
2023-06-10T04:45:16.463Z,3
2023-06-10T04:50:19.368Z,1
2023-06-10T04:55:19.588Z,1
2023-06-10T05:00:16.487Z,2
2023-06-10T05:05:19.354Z,3
2023-06-10T05:10:19.414Z,2
2023-06-10T05:15:16.438Z,2
2023-06-10T05:20:19.457Z,2
2023-06-10T05:25:16.412Z,1
2023-06-10T05:30:19.496Z,1
2023-06-10T05:35:19.447Z,1
2023-06-10T05:40:16.479Z,1
2023-06-10T05:45:19.389Z,1
2023-06-10T05:50:19.461Z,2
2023-06-10T05:55:16.444Z,2
2023-06-10T06:00:19.614Z,1
2023-06-10T06:05:16.493Z,1
2023-06-10T06:10:19.461Z,2
2023-06-10T06:15:19.617Z,1
2023-06-10T06:20:20.361Z,1
2023-06-10T06:25:19.498Z,1
2023-06-10T06:30:19.392Z,1
2023-06-10T06:35:16.461Z,1
2023-06-10T06:40:19.419Z,2
2023-06-10T06:45:19.436Z,1
2023-06-10T06:50:16.475Z,1
2023-06-10T06:55:16.473Z,3
2023-06-10T07:00:19.499Z,2
2023-06-10T07:05:16.495Z,2
2023-06-10T07:10:19.441Z,2
2023-06-10T07:15:19.390Z,3
2023-06-10T07:20:16.478Z,1
2023-06-10T07:25:16.257Z,2
2023-06-10T07:30:19.544Z,1
2023-06-10T07:35:19.459Z,2
2023-06-10T07:40:19.463Z,2
2023-06-10T07:45:19.483Z,2
2023-06-10T07:50:16.467Z,2
2023-06-10T07:55:16.473Z,2
2023-06-10T08:00:19.441Z,2
2023-06-10T08:05:16.576Z,2
2023-06-10T08:10:19.433Z,1
2023-06-10T08:15:16.479Z,1
2023-06-10T08:20:16.542Z,1
2023-06-10T08:25:19.480Z,3
2023-06-10T08:30:19.500Z,2
2023-06-10T08:35:16.515Z,2
2023-06-10T08:40:19.558Z,2
2023-06-10T08:45:19.431Z,2
2023-06-10T08:50:16.578Z,2
2023-06-10T08:55:16.511Z,2
2023-06-10T09:00:19.510Z,3
2023-06-10T09:05:16.531Z,2
2023-06-10T09:10:19.670Z,3
2023-06-10T09:15:19.457Z,3
2023-06-10T09:20:19.550Z,3
2023-06-10T09:25:16.522Z,3
2023-06-10T09:30:16.532Z,4
2023-06-10T09:35:19.523Z,4
2023-06-10T09:40:16.547Z,3
2023-06-10T09:45:19.548Z,4
2023-06-10T09:50:19.674Z,3
2023-06-10T09:55:16.561Z,3
2023-06-10T10:00:19.588Z,2
2023-06-10T10:05:19.708Z,3
2023-06-10T10:10:16.422Z,2
2023-06-10T10:15:19.473Z,3
2023-06-10T10:20:19.475Z,2
2023-06-10T10:25:16.633Z,1
2023-06-10T10:30:16.675Z,3
2023-06-10T10:35:19.504Z,1
2023-06-10T10:40:19.558Z,3
2023-06-10T10:45:16.546Z,2
2023-06-10T10:50:16.621Z,2
2023-06-10T10:55:19.563Z,3
2023-06-10T11:00:19.549Z,1
2023-06-10T11:05:19.732Z,4
2023-06-10T11:10:16.547Z,3
2023-06-10T11:15:16.593Z,3
2023-06-10T11:20:19.520Z,4
2023-06-10T11:25:16.421Z,3
2023-06-10T11:30:16.409Z,2
2023-06-10T11:35:16.613Z,3
2023-06-10T11:40:19.521Z,3
2023-06-10T11:45:16.566Z,3
2023-06-10T11:50:19.605Z,2
2023-06-10T11:55:19.545Z,4
2023-06-10T12:00:16.651Z,4
2023-06-10T12:05:19.577Z,4
2023-06-10T12:10:27.097Z,4
2023-06-10T12:15:16.584Z,3
2023-06-10T12:20:19.657Z,3
2023-06-10T12:25:16.582Z,3
2023-06-10T12:30:19.615Z,3
2023-06-10T12:35:16.569Z,2
2023-06-10T12:40:19.585Z,3
2023-06-10T12:45:19.652Z,3
2023-06-10T12:50:19.579Z,4
2023-06-10T12:55:19.564Z,5
2023-06-10T13:00:16.593Z,6
2023-06-10T13:05:20.107Z,3
2023-06-10T13:10:16.571Z,3
2023-06-10T13:15:19.590Z,4
2023-06-10T13:20:16.622Z,2
2023-06-10T13:25:16.959Z,2
2023-06-10T13:30:16.666Z,3
2023-06-10T13:35:16.649Z,2
2023-06-10T13:40:19.680Z,4
2023-06-10T13:45:16.608Z,2
2023-06-10T13:50:19.623Z,4
2023-06-10T13:55:19.580Z,2
2023-06-10T14:00:19.565Z,2
2023-06-10T14:05:19.610Z,5
2023-06-10T14:10:19.565Z,7
2023-06-10T14:15:19.602Z,7
2023-06-10T14:20:16.656Z,3
2023-06-10T14:25:16.622Z,4
2023-06-10T14:30:19.626Z,3
2023-06-10T14:35:19.601Z,4
2023-06-10T14:40:19.572Z,3
2023-06-10T14:45:19.598Z,3
2023-06-10T14:50:19.620Z,5
2023-06-10T14:55:19.666Z,3
2023-06-10T15:00:19.619Z,4
2023-06-10T15:05:19.690Z,2
2023-06-10T15:10:16.681Z,5
2023-06-10T15:15:16.676Z,5
2023-06-10T15:20:19.628Z,5
2023-06-10T15:25:30.038Z,4
2023-06-10T15:30:19.662Z,7
2023-06-10T15:35:19.662Z,5
2023-06-10T15:40:19.650Z,7
2023-06-10T15:45:19.635Z,5
2023-06-10T15:50:16.700Z,7
2023-06-10T15:55:19.675Z,4
2023-06-10T16:00:19.713Z,8
2023-06-10T16:05:16.447Z,9
2023-06-10T16:10:19.645Z,7
2023-06-10T16:15:19.711Z,5
2023-06-10T16:20:19.681Z,6
2023-06-10T16:25:16.712Z,6
2023-06-10T16:30:16.839Z,5
2023-06-10T16:35:19.680Z,4
2023-06-10T16:40:16.666Z,6
2023-06-10T16:45:16.678Z,5
2023-06-10T16:50:19.673Z,6
2023-06-10T16:55:19.712Z,3
2023-06-10T17:00:19.697Z,3
2023-06-10T17:05:19.672Z,11
2023-06-10T17:10:16.686Z,9
2023-06-10T17:15:16.709Z,9
2023-06-10T17:20:19.702Z,11
2023-06-10T17:25:19.698Z,8
2023-06-10T17:30:16.779Z,7
2023-06-10T17:35:19.669Z,6
2023-06-10T17:40:16.835Z,7
2023-06-10T17:45:16.764Z,8
2023-06-10T17:50:20.200Z,6
2023-06-10T17:55:19.711Z,7
2023-06-10T18:00:16.719Z,9
2023-06-10T18:05:19.683Z,11
2023-06-10T18:10:19.665Z,8
2023-06-10T18:15:19.695Z,12
2023-06-10T18:20:19.758Z,12
2023-06-10T18:25:16.724Z,7
2023-06-10T18:30:16.738Z,8
2023-06-10T18:35:16.733Z,6
2023-06-10T18:40:19.798Z,8
2023-06-10T18:45:19.744Z,5
2023-06-10T18:50:16.823Z,4
2023-06-10T18:55:19.800Z,2
2023-06-10T19:00:16.805Z,2
2023-06-10T19:05:19.680Z,2
2023-06-10T19:10:19.701Z,5
2023-06-10T19:15:19.681Z,4
2023-06-10T19:20:19.747Z,5
2023-06-10T19:25:19.718Z,3
2023-06-10T19:30:19.727Z,7
2023-06-10T19:35:16.742Z,7
2023-06-10T19:40:16.830Z,8
2023-06-10T19:45:16.830Z,7
2023-06-10T19:50:16.750Z,6
2023-06-10T19:55:19.774Z,6
2023-06-10T20:00:16.711Z,8
2023-06-10T20:05:16.767Z,8
2023-06-10T20:10:19.819Z,8
2023-06-10T20:15:19.773Z,5
2023-06-10T20:20:19.737Z,7
2023-06-10T20:25:16.763Z,8
2023-06-10T20:30:19.739Z,9
2023-06-10T20:35:19.813Z,9
2023-06-10T20:40:19.727Z,8
2023-06-10T20:45:19.705Z,8
2023-06-10T20:50:19.742Z,7
2023-06-10T20:55:19.721Z,5
2023-06-10T21:00:19.729Z,6
2023-06-10T21:05:19.742Z,4
2023-06-10T21:10:16.770Z,6
2023-06-10T21:15:16.772Z,4
2023-06-10T21:20:16.833Z,5
2023-06-10T21:25:19.784Z,6
2023-06-10T21:30:19.745Z,7
2023-06-10T21:35:16.801Z,6
2023-06-10T21:40:19.893Z,5
2023-06-10T21:45:19.856Z,5
2023-06-10T21:50:19.767Z,7
2023-06-10T21:55:19.810Z,7
2023-06-10T22:00:19.786Z,6
2023-06-10T22:05:16.800Z,5
2023-06-10T22:10:19.830Z,5
2023-06-10T22:15:19.843Z,6
2023-06-10T22:20:16.845Z,4
2023-06-10T22:25:16.804Z,4
2023-06-10T22:30:19.822Z,4
2023-06-10T22:35:16.872Z,4
2023-06-10T22:40:16.821Z,2
2023-06-10T22:45:19.880Z,2
2023-06-10T22:50:19.778Z,1
2023-06-10T22:55:16.826Z,3
2023-06-10T23:00:19.826Z,3
2023-06-10T23:05:16.885Z,3
2023-06-10T23:10:16.828Z,3
2023-06-10T23:15:19.807Z,4
2023-06-10T23:20:16.799Z,2
2023-06-10T23:25:19.880Z,3
2023-06-10T23:30:19.807Z,3
2023-06-10T23:35:18.841Z,3
2023-06-10T23:40:19.917Z,5
2023-06-10T23:45:16.872Z,9
2023-06-10T23:50:20.028Z,13
2023-06-10T23:55:19.837Z,5
